sensor_id;sensor_type;location;lat;lon;timestamp;temperature;humidity
14798;DHT22;7490;63.708;20.368;2024-03-17T00:00:43;-2.40;73.20
14798;DHT22;7490;63.708;20.368;2024-03-17T00:03:09;-2.40;73.90
14798;DHT22;7490;63.708;20.368;2024-03-17T00:05:37;-2.40;73.10
14798;DHT22;7490;63.708;20.368;2024-03-17T00:08:04;-2.50;73.00
14798;DHT22;7490;63.708;20.368;2024-03-17T00:10:34;-2.50;73.00
14798;DHT22;7490;63.708;20.368;2024-03-17T00:13:00;-2.50;73.00
14798;DHT22;7490;63.708;20.368;2024-03-17T00:15:26;-2.50;72.80
14798;DHT22;7490;63.708;20.368;2024-03-17T00:17:52;-2.50;72.50
14798;DHT22;7490;63.708;20.368;2024-03-17T00:20:18;-2.50;72.40
14798;DHT22;7490;63.708;20.368;2024-03-17T00:22:48;-2.50;72.50
14798;DHT22;7490;63.708;20.368;2024-03-17T00:25:14;-2.60;72.40
14798;DHT22;7490;63.708;20.368;2024-03-17T00:27:39;-2.60;72.40
14798;DHT22;7490;63.708;20.368;2024-03-17T00:30:09;-2.60;72.40
14798;DHT22;7490;63.708;20.368;2024-03-17T00:32:38;-2.60;72.40
14798;DHT22;7490;63.708;20.368;2024-03-17T00:35:06;-2.60;72.40
14798;DHT22;7490;63.708;20.368;2024-03-17T00:37:33;-2.70;72.20
14798;DHT22;7490;63.708;20.368;2024-03-17T00:40:03;-2.60;72.30
14798;DHT22;7490;63.708;20.368;2024-03-17T00:42:29;-2.60;72.20
14798;DHT22;7490;63.708;20.368;2024-03-17T00:44:55;-2.60;72.30
14798;DHT22;7490;63.708;20.368;2024-03-17T00:47:21;-2.60;72.40
14798;DHT22;7490;63.708;20.368;2024-03-17T00:49:47;-2.60;72.10
14798;DHT22;7490;63.708;20.368;2024-03-17T00:52:16;-2.70;71.90
14798;DHT22;7490;63.708;20.368;2024-03-17T00:54:41;-2.70;71.90
14798;DHT22;7490;63.708;20.368;2024-03-17T00:57:07;-2.70;71.90
14798;DHT22;7490;63.708;20.368;2024-03-17T00:59:33;-2.70;71.80
14798;DHT22;7490;63.708;20.368;2024-03-17T01:01:59;-2.70;71.90
14798;DHT22;7490;63.708;20.368;2024-03-17T01:04:25;-2.70;71.80
14798;DHT22;7490;63.708;20.368;2024-03-17T01:06:50;-2.80;71.80
14798;DHT22;7490;63.708;20.368;2024-03-17T01:09:16;-2.80;71.80
14798;DHT22;7490;63.708;20.368;2024-03-17T01:11:41;-2.80;71.80
14798;DHT22;7490;63.708;20.368;2024-03-17T01:14:07;-2.80;71.80
14798;DHT22;7490;63.708;20.368;2024-03-17T01:16:35;-2.90;71.90
14798;DHT22;7490;63.708;20.368;2024-03-17T01:19:01;-2.90;71.80
14798;DHT22;7490;63.708;20.368;2024-03-17T01:21:27;-3.00;71.70
14798;DHT22;7490;63.708;20.368;2024-03-17T01:23:52;-3.00;71.70
14798;DHT22;7490;63.708;20.368;2024-03-17T01:26:18;-3.00;71.80
14798;DHT22;7490;63.708;20.368;2024-03-17T01:28:44;-3.10;71.80
14798;DHT22;7490;63.708;20.368;2024-03-17T01:31:09;-3.10;71.80
14798;DHT22;7490;63.708;20.368;2024-03-17T01:33:35;-3.20;71.90
14798;DHT22;7490;63.708;20.368;2024-03-17T01:36:01;-3.20;71.90
14798;DHT22;7490;63.708;20.368;2024-03-17T01:38:26;-3.30;72.00
14798;DHT22;7490;63.708;20.368;2024-03-17T01:40:52;-3.30;72.10
14798;DHT22;7490;63.708;20.368;2024-03-17T01:43:18;-3.30;72.10
14798;DHT22;7490;63.708;20.368;2024-03-17T01:45:43;-3.40;72.20
14798;DHT22;7490;63.708;20.368;2024-03-17T01:48:14;-3.40;72.20
14798;DHT22;7490;63.708;20.368;2024-03-17T01:50:41;-3.40;72.30
14798;DHT22;7490;63.708;20.368;2024-03-17T01:53:08;-3.50;72.30
14798;DHT22;7490;63.708;20.368;2024-03-17T01:55:38;-3.50;72.40
14798;DHT22;7490;63.708;20.368;2024-03-17T01:58:05;-3.50;72.40
14798;DHT22;7490;63.708;20.368;2024-03-17T02:00:36;-3.60;72.50
14798;DHT22;7490;63.708;20.368;2024-03-17T02:03:05;-3.60;72.70
14798;DHT22;7490;63.708;20.368;2024-03-17T02:05:31;-3.70;72.70
14798;DHT22;7490;63.708;20.368;2024-03-17T02:07:57;-3.70;72.80
14798;DHT22;7490;63.708;20.368;2024-03-17T02:10:23;-3.70;72.80
14798;DHT22;7490;63.708;20.368;2024-03-17T02:12:49;-3.80;72.80
14798;DHT22;7490;63.708;20.368;2024-03-17T02:15:15;-3.80;72.90
14798;DHT22;7490;63.708;20.368;2024-03-17T02:17:40;-3.80;73.00
14798;DHT22;7490;63.708;20.368;2024-03-17T02:20:06;-3.90;73.00
14798;DHT22;7490;63.708;20.368;2024-03-17T02:22:37;-4.00;73.10
14798;DHT22;7490;63.708;20.368;2024-03-17T02:25:03;-4.00;73.30
14798;DHT22;7490;63.708;20.368;2024-03-17T02:27:29;-4.10;73.40
14798;DHT22;7490;63.708;20.368;2024-03-17T02:29:55;-4.20;73.50
14798;DHT22;7490;63.708;20.368;2024-03-17T02:32:21;-4.30;73.60
14798;DHT22;7490;63.708;20.368;2024-03-17T02:34:48;-4.30;73.70
14798;DHT22;7490;63.708;20.368;2024-03-17T02:37:14;-4.30;73.90
14798;DHT22;7490;63.708;20.368;2024-03-17T02:39:41;-4.40;73.90
14798;DHT22;7490;63.708;20.368;2024-03-17T02:42:08;-4.40;74.00
14798;DHT22;7490;63.708;20.368;2024-03-17T02:44:35;-4.50;74.10
14798;DHT22;7490;63.708;20.368;2024-03-17T02:47:03;-4.50;74.20
14798;DHT22;7490;63.708;20.368;2024-03-17T02:49:34;-4.60;74.20
14798;DHT22;7490;63.708;20.368;2024-03-17T02:52:05;-4.60;74.30
14798;DHT22;7490;63.708;20.368;2024-03-17T02:54:31;-4.70;74.40
14798;DHT22;7490;63.708;20.368;2024-03-17T02:56:58;-4.80;74.50
14798;DHT22;7490;63.708;20.368;2024-03-17T02:59:23;-4.80;74.70
14798;DHT22;7490;63.708;20.368;2024-03-17T03:01:49;-4.80;75.70
14798;DHT22;7490;63.708;20.368;2024-03-17T03:04:15;-4.90;75.10
14798;DHT22;7490;63.708;20.368;2024-03-17T03:06:41;-5.00;75.30
14798;DHT22;7490;63.708;20.368;2024-03-17T03:09:06;-5.00;75.50
14798;DHT22;7490;63.708;20.368;2024-03-17T03:11:38;-5.00;75.70
14798;DHT22;7490;63.708;20.368;2024-03-17T03:14:05;-5.10;75.80
14798;DHT22;7490;63.708;20.368;2024-03-17T03:16:31;-5.10;76.00
14798;DHT22;7490;63.708;20.368;2024-03-17T03:18:56;-5.20;76.10
14798;DHT22;7490;63.708;20.368;2024-03-17T03:21:22;-5.20;76.40
14798;DHT22;7490;63.708;20.368;2024-03-17T03:23:48;-5.30;76.50
14798;DHT22;7490;63.708;20.368;2024-03-17T03:26:13;-5.40;76.60
14798;DHT22;7490;63.708;20.368;2024-03-17T03:28:39;-5.40;76.80
14798;DHT22;7490;63.708;20.368;2024-03-17T03:31:05;-5.50;76.90
14798;DHT22;7490;63.708;20.368;2024-03-17T03:33:32;-5.50;77.10
14798;DHT22;7490;63.708;20.368;2024-03-17T03:35:58;-5.60;77.30
14798;DHT22;7490;63.708;20.368;2024-03-17T03:38:23;-5.60;77.40
14798;DHT22;7490;63.708;20.368;2024-03-17T03:40:49;-5.70;77.40
14798;DHT22;7490;63.708;20.368;2024-03-17T03:43:15;-5.60;77.70
14798;DHT22;7490;63.708;20.368;2024-03-17T03:45:41;-5.70;77.70
14798;DHT22;7490;63.708;20.368;2024-03-17T03:48:07;-5.80;77.70
14798;DHT22;7490;63.708;20.368;2024-03-17T03:50:37;-5.80;77.80
14798;DHT22;7490;63.708;20.368;2024-03-17T03:53:04;-5.80;77.80
14798;DHT22;7490;63.708;20.368;2024-03-17T03:55:31;-5.90;77.90
14798;DHT22;7490;63.708;20.368;2024-03-17T03:57:57;-5.90;78.10
14798;DHT22;7490;63.708;20.368;2024-03-17T04:00:22;-6.00;78.10
14798;DHT22;7490;63.708;20.368;2024-03-17T04:02:53;-6.10;78.20
14798;DHT22;7490;63.708;20.368;2024-03-17T04:05:19;-6.10;78.40
14798;DHT22;7490;63.708;20.368;2024-03-17T04:07:46;-6.10;78.40
14798;DHT22;7490;63.708;20.368;2024-03-17T04:10:14;-6.20;79.20
14798;DHT22;7490;63.708;20.368;2024-03-17T04:12:39;-6.20;78.60
14798;DHT22;7490;63.708;20.368;2024-03-17T04:15:05;-6.30;78.60
14798;DHT22;7490;63.708;20.368;2024-03-17T04:17:32;-6.30;78.60
14798;DHT22;7490;63.708;20.368;2024-03-17T04:19:58;-6.40;78.70
14798;DHT22;7490;63.708;20.368;2024-03-17T04:22:24;-6.40;78.90
14798;DHT22;7490;63.708;20.368;2024-03-17T04:24:51;-6.40;79.00
14798;DHT22;7490;63.708;20.368;2024-03-17T04:27:29;-6.50;78.90
14798;DHT22;7490;63.708;20.368;2024-03-17T04:29:56;-6.50;79.00
14798;DHT22;7490;63.708;20.368;2024-03-17T04:32:22;-6.50;79.10
14798;DHT22;7490;63.708;20.368;2024-03-17T04:34:48;-6.50;79.10
14798;DHT22;7490;63.708;20.368;2024-03-17T04:37:14;-6.60;79.10
14798;DHT22;7490;63.708;20.368;2024-03-17T04:39:40;-6.60;79.10
14798;DHT22;7490;63.708;20.368;2024-03-17T04:42:08;-6.60;79.10
14798;DHT22;7490;63.708;20.368;2024-03-17T04:44:34;-6.70;79.10
14798;DHT22;7490;63.708;20.368;2024-03-17T04:47:00;-6.70;79.20
14798;DHT22;7490;63.708;20.368;2024-03-17T04:49:26;-6.80;79.20
14798;DHT22;7490;63.708;20.368;2024-03-17T04:51:52;-6.80;79.30
14798;DHT22;7490;63.708;20.368;2024-03-17T04:54:17;-6.80;79.30
14798;DHT22;7490;63.708;20.368;2024-03-17T04:56:43;-6.80;79.30
14798;DHT22;7490;63.708;20.368;2024-03-17T04:59:09;-6.80;79.30
14798;DHT22;7490;63.708;20.368;2024-03-17T05:01:34;-6.90;79.30
14798;DHT22;7490;63.708;20.368;2024-03-17T05:04:04;-6.90;79.30
14798;DHT22;7490;63.708;20.368;2024-03-17T05:06:30;-6.90;79.40
14798;DHT22;7490;63.708;20.368;2024-03-17T05:08:56;-6.90;79.50
14798;DHT22;7490;63.708;20.368;2024-03-17T05:11:22;-6.90;79.50
14798;DHT22;7490;63.708;20.368;2024-03-17T05:13:49;-6.90;79.60
14798;DHT22;7490;63.708;20.368;2024-03-17T05:16:15;-7.00;79.50
14798;DHT22;7490;63.708;20.368;2024-03-17T05:18:41;-7.00;79.60
14798;DHT22;7490;63.708;20.368;2024-03-17T05:21:07;-7.00;79.60
14798;DHT22;7490;63.708;20.368;2024-03-17T05:23:34;-7.00;79.70
14798;DHT22;7490;63.708;20.368;2024-03-17T05:26:00;-7.00;79.80
14798;DHT22;7490;63.708;20.368;2024-03-17T05:28:28;-7.00;79.90
14798;DHT22;7490;63.708;20.368;2024-03-17T05:30:54;-7.00;79.90
14798;DHT22;7490;63.708;20.368;2024-03-17T05:33:23;-7.00;79.90
14798;DHT22;7490;63.708;20.368;2024-03-17T05:35:56;-7.00;79.80
14798;DHT22;7490;63.708;20.368;2024-03-17T05:38:26;-6.90;79.90
14798;DHT22;7490;63.708;20.368;2024-03-17T05:43:19;-6.90;79.80
14798;DHT22;7490;63.708;20.368;2024-03-17T05:45:44;-6.90;79.80
14798;DHT22;7490;63.708;20.368;2024-03-17T05:48:10;-6.90;79.80
14798;DHT22;7490;63.708;20.368;2024-03-17T05:50:36;-6.80;79.90
14798;DHT22;7490;63.708;20.368;2024-03-17T05:53:01;-6.80;80.00
14798;DHT22;7490;63.708;20.368;2024-03-17T05:55:28;-6.60;80.30
14798;DHT22;7490;63.708;20.368;2024-03-17T05:57:54;-6.50;80.10
14798;DHT22;7490;63.708;20.368;2024-03-17T06:00:19;-6.40;79.80
14798;DHT22;7490;63.708;20.368;2024-03-17T06:02:46;-6.30;79.70
14798;DHT22;7490;63.708;20.368;2024-03-17T06:05:12;-6.20;79.80
14798;DHT22;7490;63.708;20.368;2024-03-17T06:07:40;-6.10;80.00
14798;DHT22;7490;63.708;20.368;2024-03-17T06:10:06;-5.60;81.10
14798;DHT22;7490;63.708;20.368;2024-03-17T06:12:32;-5.00;80.90
14798;DHT22;7490;63.708;20.368;2024-03-17T06:14:58;-4.40;81.70
14798;DHT22;7490;63.708;20.368;2024-03-17T06:17:25;-3.60;80.10
14798;DHT22;7490;63.708;20.368;2024-03-17T06:19:52;-2.90;79.40
14798;DHT22;7490;63.708;20.368;2024-03-17T06:22:17;-2.20;78.40
14798;DHT22;7490;63.708;20.368;2024-03-17T06:24:43;-1.40;78.20
14798;DHT22;7490;63.708;20.368;2024-03-17T06:27:09;-0.20;77.80
14798;DHT22;7490;63.708;20.368;2024-03-17T06:29:35;1.60;76.60
14798;DHT22;7490;63.708;20.368;2024-03-17T06:32:00;3.40;73.60
14798;DHT22;7490;63.708;20.368;2024-03-17T06:34:26;4.70;70.20
14798;DHT22;7490;63.708;20.368;2024-03-17T06:36:52;5.80;67.90
14798;DHT22;7490;63.708;20.368;2024-03-17T06:39:18;6.80;65.50
14798;DHT22;7490;63.708;20.368;2024-03-17T06:41:46;7.70;63.10
14798;DHT22;7490;63.708;20.368;2024-03-17T06:44:12;8.40;60.80
14798;DHT22;7490;63.708;20.368;2024-03-17T06:46:37;9.00;59.00
14798;DHT22;7490;63.708;20.368;2024-03-17T06:49:03;9.60;58.00
14798;DHT22;7490;63.708;20.368;2024-03-17T06:51:29;10.10;56.50
14798;DHT22;7490;63.708;20.368;2024-03-17T06:53:54;10.60;55.30
14798;DHT22;7490;63.708;20.368;2024-03-17T06:56:20;11.00;54.20
14798;DHT22;7490;63.708;20.368;2024-03-17T06:58:46;11.30;53.20
14798;DHT22;7490;63.708;20.368;2024-03-17T07:01:12;11.70;51.70
14798;DHT22;7490;63.708;20.368;2024-03-17T07:03:38;11.80;49.80
14798;DHT22;7490;63.708;20.368;2024-03-17T07:06:04;11.80;48.90
14798;DHT22;7490;63.708;20.368;2024-03-17T07:08:31;12.00;48.70
14798;DHT22;7490;63.708;20.368;2024-03-17T07:13:30;12.70;46.40
14798;DHT22;7490;63.708;20.368;2024-03-17T07:15:56;12.70;45.60
14798;DHT22;7490;63.708;20.368;2024-03-17T07:18:22;12.80;44.90
14798;DHT22;7490;63.708;20.368;2024-03-17T07:20:47;12.70;43.40
14798;DHT22;7490;63.708;20.368;2024-03-17T07:23:16;12.40;43.10
14798;DHT22;7490;63.708;20.368;2024-03-17T07:25:42;12.50;42.90
14798;DHT22;7490;63.708;20.368;2024-03-17T07:28:09;12.00;41.00
14798;DHT22;7490;63.708;20.368;2024-03-17T07:30:35;10.90;41.20
14798;DHT22;7490;63.708;20.368;2024-03-17T07:33:01;10.00;41.70
14798;DHT22;7490;63.708;20.368;2024-03-17T07:35:26;8.90;41.70
14798;DHT22;7490;63.708;20.368;2024-03-17T07:37:52;7.50;42.80
14798;DHT22;7490;63.708;20.368;2024-03-17T07:40:17;7.20;45.80
14798;DHT22;7490;63.708;20.368;2024-03-17T07:42:44;7.80;46.30
14798;DHT22;7490;63.708;20.368;2024-03-17T07:45:10;8.70;45.10
14798;DHT22;7490;63.708;20.368;2024-03-17T07:47:36;9.10;43.40
14798;DHT22;7490;63.708;20.368;2024-03-17T07:50:03;9.40;43.10
14798;DHT22;7490;63.708;20.368;2024-03-17T07:52:32;9.90;43.40
14798;DHT22;7490;63.708;20.368;2024-03-17T07:54:57;10.00;41.60
14798;DHT22;7490;63.708;20.368;2024-03-17T07:57:23;9.70;41.70
14798;DHT22;7490;63.708;20.368;2024-03-17T07:59:52;10.10;41.90
14798;DHT22;7490;63.708;20.368;2024-03-17T08:02:18;10.90;42.00
14798;DHT22;7490;63.708;20.368;2024-03-17T08:04:43;11.70;41.40
14798;DHT22;7490;63.708;20.368;2024-03-17T08:07:12;12.40;40.80
14798;DHT22;7490;63.708;20.368;2024-03-17T08:09:38;12.80;39.70
14798;DHT22;7490;63.708;20.368;2024-03-17T08:12:04;12.70;38.50
14798;DHT22;7490;63.708;20.368;2024-03-17T08:14:30;12.40;38.40
14798;DHT22;7490;63.708;20.368;2024-03-17T08:16:56;12.20;38.60
14798;DHT22;7490;63.708;20.368;2024-03-17T08:19:21;12.10;38.40
14798;DHT22;7490;63.708;20.368;2024-03-17T08:21:47;12.40;38.80
14798;DHT22;7490;63.708;20.368;2024-03-17T08:24:13;12.50;37.80
14798;DHT22;7490;63.708;20.368;2024-03-17T08:26:39;12.20;37.10
14798;DHT22;7490;63.708;20.368;2024-03-17T08:29:06;11.90;37.20
14798;DHT22;7490;63.708;20.368;2024-03-17T08:31:32;11.80;37.80
14798;DHT22;7490;63.708;20.368;2024-03-17T08:33:57;11.70;37.50
14798;DHT22;7490;63.708;20.368;2024-03-17T08:36:23;11.60;37.40
14798;DHT22;7490;63.708;20.368;2024-03-17T08:38:50;11.50;37.80
14798;DHT22;7490;63.708;20.368;2024-03-17T08:41:16;11.80;38.10
14798;DHT22;7490;63.708;20.368;2024-03-17T08:43:42;12.30;37.90
14798;DHT22;7490;63.708;20.368;2024-03-17T08:46:09;12.70;37.30
14798;DHT22;7490;63.708;20.368;2024-03-17T08:48:37;13.00;36.90
14798;DHT22;7490;63.708;20.368;2024-03-17T08:51:04;13.30;36.50
14798;DHT22;7490;63.708;20.368;2024-03-17T08:53:30;13.60;36.00
14798;DHT22;7490;63.708;20.368;2024-03-17T08:55:57;13.90;35.70
14798;DHT22;7490;63.708;20.368;2024-03-17T08:58:23;13.90;35.10
14798;DHT22;7490;63.708;20.368;2024-03-17T09:00:49;13.60;34.70
14798;DHT22;7490;63.708;20.368;2024-03-17T09:03:15;13.20;34.80
14798;DHT22;7490;63.708;20.368;2024-03-17T09:05:45;12.90;34.90
14798;DHT22;7490;63.708;20.368;2024-03-17T09:08:19;12.70;35.20
14798;DHT22;7490;63.708;20.368;2024-03-17T09:10:46;12.80;35.30
14798;DHT22;7490;63.708;20.368;2024-03-17T09:13:17;12.90;35.50
14798;DHT22;7490;63.708;20.368;2024-03-17T09:16:01;13.00;35.40
14798;DHT22;7490;63.708;20.368;2024-03-17T09:18:33;13.30;34.70
14798;DHT22;7490;63.708;20.368;2024-03-17T09:21:03;13.30;34.20
14798;DHT22;7490;63.708;20.368;2024-03-17T09:23:30;13.20;34.30
14798;DHT22;7490;63.708;20.368;2024-03-17T09:28:22;13.10;34.40
14798;DHT22;7490;63.708;20.368;2024-03-17T09:30:48;13.00;34.10
14798;DHT22;7490;63.708;20.368;2024-03-17T09:33:15;12.70;34.10
14798;DHT22;7490;63.708;20.368;2024-03-17T09:35:40;12.60;34.10
14798;DHT22;7490;63.708;20.368;2024-03-17T09:38:06;12.60;34.40
14798;DHT22;7490;63.708;20.368;2024-03-17T09:40:32;12.70;34.50
14798;DHT22;7490;63.708;20.368;2024-03-17T09:42:58;12.80;34.40
14798;DHT22;7490;63.708;20.368;2024-03-17T09:45:24;13.10;34.30
14798;DHT22;7490;63.708;20.368;2024-03-17T09:47:51;13.30;34.00
14798;DHT22;7490;63.708;20.368;2024-03-17T09:50:17;13.30;33.70
14798;DHT22;7490;63.708;20.368;2024-03-17T09:52:45;13.10;33.50
14798;DHT22;7490;63.708;20.368;2024-03-17T09:55:15;12.80;33.40
14798;DHT22;7490;63.708;20.368;2024-03-17T09:57:42;12.70;34.00
14798;DHT22;7490;63.708;20.368;2024-03-17T10:00:13;12.80;34.10
14798;DHT22;7490;63.708;20.368;2024-03-17T10:02:46;12.80;33.50
14798;DHT22;7490;63.708;20.368;2024-03-17T10:05:23;12.80;33.60
14798;DHT22;7490;63.708;20.368;2024-03-17T10:07:50;12.60;33.70
14798;DHT22;7490;63.708;20.368;2024-03-17T10:10:20;12.50;34.10
14798;DHT22;7490;63.708;20.368;2024-03-17T10:12:50;12.50;34.10
14798;DHT22;7490;63.708;20.368;2024-03-17T10:15:19;12.50;33.70
14798;DHT22;7490;63.708;20.368;2024-03-17T10:17:46;12.30;33.40
14798;DHT22;7490;63.708;20.368;2024-03-17T10:20:19;12.00;33.50
14798;DHT22;7490;63.708;20.368;2024-03-17T10:23:04;11.80;33.60
14798;DHT22;7490;63.708;20.368;2024-03-17T10:25:34;11.60;33.50
14798;DHT22;7490;63.708;20.368;2024-03-17T10:28:13;11.30;34.10
14798;DHT22;7490;63.708;20.368;2024-03-17T10:30:40;11.20;34.30
14798;DHT22;7490;63.708;20.368;2024-03-17T10:33:06;11.10;34.80
14798;DHT22;7490;63.708;20.368;2024-03-17T10:35:36;11.20;35.20
14798;DHT22;7490;63.708;20.368;2024-03-17T10:38:08;11.20;35.40
14798;DHT22;7490;63.708;20.368;2024-03-17T10:40:34;11.00;35.90
14798;DHT22;7490;63.708;20.368;2024-03-17T10:43:02;10.90;36.70
14798;DHT22;7490;63.708;20.368;2024-03-17T10:45:28;10.90;37.80
14798;DHT22;7490;63.708;20.368;2024-03-17T10:48:01;10.90;37.30
14798;DHT22;7490;63.708;20.368;2024-03-17T10:50:30;11.00;37.30
14798;DHT22;7490;63.708;20.368;2024-03-17T10:53:01;10.90;37.10
14798;DHT22;7490;63.708;20.368;2024-03-17T10:55:43;10.90;37.20
14798;DHT22;7490;63.708;20.368;2024-03-17T10:58:32;10.90;37.30
14798;DHT22;7490;63.708;20.368;2024-03-17T11:01:00;11.00;37.30
14798;DHT22;7490;63.708;20.368;2024-03-17T11:03:31;11.10;37.60
14798;DHT22;7490;63.708;20.368;2024-03-17T11:05:57;11.10;37.20
14798;DHT22;7490;63.708;20.368;2024-03-17T11:08:24;11.10;37.50
14798;DHT22;7490;63.708;20.368;2024-03-17T11:10:51;10.80;37.20
14798;DHT22;7490;63.708;20.368;2024-03-17T11:15:50;10.20;38.40
14798;DHT22;7490;63.708;20.368;2024-03-17T11:23:40;9.70;39.00
14798;DHT22;7490;63.708;20.368;2024-03-17T11:26:07;9.40;39.20
14798;DHT22;7490;63.708;20.368;2024-03-17T11:28:45;9.20;39.20
14798;DHT22;7490;63.708;20.368;2024-03-17T11:31:45;9.10;39.60
14798;DHT22;7490;63.708;20.368;2024-03-17T11:36:52;7.70;40.40
14798;DHT22;7490;63.708;20.368;2024-03-17T11:42:15;5.90;41.90
14798;DHT22;7490;63.708;20.368;2024-03-17T11:45:02;5.10;42.90
14798;DHT22;7490;63.708;20.368;2024-03-17T11:47:41;4.40;44.00
14798;DHT22;7490;63.708;20.368;2024-03-17T11:50:09;3.80;44.80
14798;DHT22;7490;63.708;20.368;2024-03-17T11:52:36;3.30;45.50
14798;DHT22;7490;63.708;20.368;2024-03-17T11:55:02;3.00;46.70
14798;DHT22;7490;63.708;20.368;2024-03-17T11:57:28;2.80;47.40
14798;DHT22;7490;63.708;20.368;2024-03-17T11:59:55;2.70;47.80
14798;DHT22;7490;63.708;20.368;2024-03-17T12:02:22;2.50;48.50
14798;DHT22;7490;63.708;20.368;2024-03-17T12:04:49;2.40;49.10
14798;DHT22;7490;63.708;20.368;2024-03-17T12:07:20;2.20;49.40
14798;DHT22;7490;63.708;20.368;2024-03-17T12:09:52;2.10;49.80
14798;DHT22;7490;63.708;20.368;2024-03-17T12:14:50;1.80;50.70
14798;DHT22;7490;63.708;20.368;2024-03-17T12:17:23;1.70;51.30
14798;DHT22;7490;63.708;20.368;2024-03-17T12:19:50;1.70;51.90
14798;DHT22;7490;63.708;20.368;2024-03-17T12:22:18;1.50;52.00
14798;DHT22;7490;63.708;20.368;2024-03-17T12:24:48;1.50;52.30
14798;DHT22;7490;63.708;20.368;2024-03-17T12:27:24;1.40;52.50
14798;DHT22;7490;63.708;20.368;2024-03-17T12:29:54;1.40;53.40
14798;DHT22;7490;63.708;20.368;2024-03-17T12:32:25;1.40;53.10
14798;DHT22;7490;63.708;20.368;2024-03-17T12:34:56;1.40;53.60
14798;DHT22;7490;63.708;20.368;2024-03-17T12:37:27;1.40;53.70
14798;DHT22;7490;63.708;20.368;2024-03-17T12:40:00;1.40;53.80
14798;DHT22;7490;63.708;20.368;2024-03-17T12:42:27;1.30;53.90
14798;DHT22;7490;63.708;20.368;2024-03-17T12:44:57;1.30;54.10
14798;DHT22;7490;63.708;20.368;2024-03-17T12:47:28;1.30;54.40
14798;DHT22;7490;63.708;20.368;2024-03-17T12:49:57;1.30;54.70
14798;DHT22;7490;63.708;20.368;2024-03-17T12:52:24;1.40;54.80
14798;DHT22;7490;63.708;20.368;2024-03-17T12:57:47;1.50;54.70
14798;DHT22;7490;63.708;20.368;2024-03-17T13:00:32;1.50;54.80
14798;DHT22;7490;63.708;20.368;2024-03-17T13:03:02;1.50;54.80
14798;DHT22;7490;63.708;20.368;2024-03-17T13:05:30;1.60;54.80
14798;DHT22;7490;63.708;20.368;2024-03-17T13:07:56;1.50;54.80
14798;DHT22;7490;63.708;20.368;2024-03-17T13:10:24;1.60;54.80
14798;DHT22;7490;63.708;20.368;2024-03-17T13:13:08;1.60;54.90
14798;DHT22;7490;63.708;20.368;2024-03-17T13:15:34;1.60;55.10
14798;DHT22;7490;63.708;20.368;2024-03-17T13:18:01;1.60;55.30
14798;DHT22;7490;63.708;20.368;2024-03-17T13:20:27;1.60;55.40
14798;DHT22;7490;63.708;20.368;2024-03-17T13:22:53;1.60;55.40
14798;DHT22;7490;63.708;20.368;2024-03-17T13:25:24;1.60;55.60
14798;DHT22;7490;63.708;20.368;2024-03-17T13:27:52;1.60;55.80
14798;DHT22;7490;63.708;20.368;2024-03-17T13:30:19;1.50;55.90
14798;DHT22;7490;63.708;20.368;2024-03-17T13:32:45;1.40;56.10
14798;DHT22;7490;63.708;20.368;2024-03-17T13:35:17;1.30;56.30
14798;DHT22;7490;63.708;20.368;2024-03-17T13:37:45;1.40;56.60
14798;DHT22;7490;63.708;20.368;2024-03-17T13:40:12;1.30;56.80
14798;DHT22;7490;63.708;20.368;2024-03-17T13:42:46;1.30;56.90
14798;DHT22;7490;63.708;20.368;2024-03-17T13:45:16;1.20;56.90
14798;DHT22;7490;63.708;20.368;2024-03-17T13:47:51;1.10;57.00
14798;DHT22;7490;63.708;20.368;2024-03-17T13:50:17;1.10;57.40
14798;DHT22;7490;63.708;20.368;2024-03-17T13:52:43;1.00;57.50
14798;DHT22;7490;63.708;20.368;2024-03-17T13:55:19;1.00;58.00
14798;DHT22;7490;63.708;20.368;2024-03-17T13:57:49;1.00;58.40
14798;DHT22;7490;63.708;20.368;2024-03-17T14:00:15;0.90;58.50
14798;DHT22;7490;63.708;20.368;2024-03-17T14:02:48;0.90;58.60
14798;DHT22;7490;63.708;20.368;2024-03-17T14:05:17;0.90;58.80
14798;DHT22;7490;63.708;20.368;2024-03-17T14:07:43;0.90;59.20
14798;DHT22;7490;63.708;20.368;2024-03-17T14:10:13;0.80;59.40
14798;DHT22;7490;63.708;20.368;2024-03-17T14:12:39;0.70;59.40
14798;DHT22;7490;63.708;20.368;2024-03-17T14:15:06;0.60;59.30
14798;DHT22;7490;63.708;20.368;2024-03-17T14:17:32;0.50;59.40
14798;DHT22;7490;63.708;20.368;2024-03-17T14:19:58;0.40;59.60
14798;DHT22;7490;63.708;20.368;2024-03-17T14:22:24;0.30;59.80
14798;DHT22;7490;63.708;20.368;2024-03-17T14:24:50;0.30;60.10
14798;DHT22;7490;63.708;20.368;2024-03-17T14:27:16;0.20;60.50
14798;DHT22;7490;63.708;20.368;2024-03-17T14:29:43;0.10;60.70
14798;DHT22;7490;63.708;20.368;2024-03-17T14:32:09;0.10;61.10
14798;DHT22;7490;63.708;20.368;2024-03-17T14:34:34;0.00;61.30
14798;DHT22;7490;63.708;20.368;2024-03-17T14:37:02;-0.10;61.70
14798;DHT22;7490;63.708;20.368;2024-03-17T14:39:29;-0.10;62.10
14798;DHT22;7490;63.708;20.368;2024-03-17T14:41:55;-0.20;62.30
14798;DHT22;7490;63.708;20.368;2024-03-17T14:44:21;-0.20;62.20
14798;DHT22;7490;63.708;20.368;2024-03-17T14:46:48;-0.30;62.30
14798;DHT22;7490;63.708;20.368;2024-03-17T14:49:20;-0.30;62.50
14798;DHT22;7490;63.708;20.368;2024-03-17T14:51:46;-0.40;62.40
14798;DHT22;7490;63.708;20.368;2024-03-17T14:54:11;-0.40;62.50
14798;DHT22;7490;63.708;20.368;2024-03-17T14:56:38;-0.50;62.60
14798;DHT22;7490;63.708;20.368;2024-03-17T14:59:05;-0.40;62.80
14798;DHT22;7490;63.708;20.368;2024-03-17T15:01:31;-0.50;63.00
14798;DHT22;7490;63.708;20.368;2024-03-17T15:03:57;-0.50;63.10
14798;DHT22;7490;63.708;20.368;2024-03-17T15:06:23;-0.50;63.40
14798;DHT22;7490;63.708;20.368;2024-03-17T15:08:50;-0.50;63.70
14798;DHT22;7490;63.708;20.368;2024-03-17T15:11:16;-0.60;63.90
14798;DHT22;7490;63.708;20.368;2024-03-17T15:13:43;-0.70;64.10
14798;DHT22;7490;63.708;20.368;2024-03-17T15:16:10;-0.70;64.40
14798;DHT22;7490;63.708;20.368;2024-03-17T15:18:36;-0.80;64.50
14798;DHT22;7490;63.708;20.368;2024-03-17T15:21:03;-0.90;64.50
14798;DHT22;7490;63.708;20.368;2024-03-17T15:23:31;-1.00;64.60
14798;DHT22;7490;63.708;20.368;2024-03-17T15:26:04;-1.00;65.00
14798;DHT22;7490;63.708;20.368;2024-03-17T15:28:39;-1.00;65.40
14798;DHT22;7490;63.708;20.368;2024-03-17T15:31:06;-1.10;65.50
14798;DHT22;7490;63.708;20.368;2024-03-17T15:33:35;-1.20;65.60
14798;DHT22;7490;63.708;20.368;2024-03-17T15:36:03;-1.20;65.90
14798;DHT22;7490;63.708;20.368;2024-03-17T15:38:36;-1.30;66.20
14798;DHT22;7490;63.708;20.368;2024-03-17T15:41:06;-1.30;66.60
14798;DHT22;7490;63.708;20.368;2024-03-17T15:43:51;-1.40;66.80
14798;DHT22;7490;63.708;20.368;2024-03-17T15:46:19;-1.50;67.30
14798;DHT22;7490;63.708;20.368;2024-03-17T15:48:48;-1.50;67.30
14798;DHT22;7490;63.708;20.368;2024-03-17T15:51:14;-1.60;67.60
14798;DHT22;7490;63.708;20.368;2024-03-17T15:53:41;-1.70;67.90
14798;DHT22;7490;63.708;20.368;2024-03-17T15:56:07;-1.70;68.10
14798;DHT22;7490;63.708;20.368;2024-03-17T15:58:32;-1.80;68.10
14798;DHT22;7490;63.708;20.368;2024-03-17T16:00:59;-1.80;68.40
14798;DHT22;7490;63.708;20.368;2024-03-17T16:03:31;-1.90;68.70